createdAt,value
2018-05-18T03:17:14.456Z,7.27
2018-05-18T03:19:43.030Z,7.33
2018-05-18T03:22:12.755Z,8.13
2018-05-18T03:24:43.316Z,6.80
2018-05-18T03:27:11.890Z,6.90
2018-05-18T03:29:40.458Z,6.67
2018-05-18T03:32:09.080Z,6.57
2018-05-18T03:34:39.478Z,6.40
2018-05-18T03:37:09.209Z,6.40
2018-05-18T03:39:37.873Z,5.50
2018-05-18T03:42:06.433Z,5.60
2018-05-18T03:44:35.522Z,5.57
2018-05-18T03:49:38.398Z,5.00
2018-05-18T03:52:06.963Z,4.70
2018-05-18T03:54:36.373Z,4.63
2018-05-18T03:57:04.936Z,4.80
2018-05-18T03:59:34.888Z,4.33
2018-05-18T04:02:15.099Z,5.10
2018-05-18T04:04:55.385Z,4.93
2018-05-18T04:07:36.296Z,5.53
2018-05-18T04:10:04.557Z,5.27
2018-05-18T04:12:34.831Z,5.60
2018-05-18T04:15:03.399Z,5.40
2018-05-18T04:17:31.952Z,5.83
2018-05-18T04:20:00.515Z,5.17
2018-05-18T04:22:29.095Z,5.27
2018-05-18T04:24:57.648Z,5.37
2018-05-18T04:27:26.210Z,6.30
2018-05-18T04:29:54.769Z,7.87
2018-05-18T04:32:23.428Z,6.33
2018-05-18T04:34:51.992Z,6.23
2018-05-18T04:37:20.560Z,6.50
2018-05-18T04:39:49.214Z,5.73
2018-05-18T04:42:18.935Z,5.90
2018-05-18T04:44:48.189Z,6.73
2018-05-18T04:47:16.753Z,6.10
2018-05-18T04:49:45.347Z,6.20
2018-05-18T04:52:13.912Z,6.87
2018-05-18T04:54:43.553Z,6.53
2018-05-18T04:57:12.119Z,5.77
2018-05-18T04:59:41.314Z,5.93
2018-05-18T05:02:09.919Z,6.23
2018-05-18T05:04:38.511Z,5.90
2018-05-18T05:07:07.059Z,5.77
2018-05-18T05:09:35.658Z,6.17
2018-05-18T05:12:04.248Z,6.53
2018-05-18T05:14:32.956Z,6.30
2018-05-18T05:17:01.558Z,6.20
2018-05-18T05:19:30.110Z,6.30
2018-05-18T05:21:59.428Z,6.23
2018-05-18T05:24:27.983Z,5.87
2018-05-18T05:26:56.560Z,6.63
2018-05-18T05:29:25.135Z,6.53
2018-05-18T05:31:53.702Z,6.97
2018-05-18T05:34:23.195Z,7.23
2018-05-18T05:36:51.761Z,7.00
2018-05-18T05:39:20.324Z,7.20
2018-05-18T05:41:48.947Z,7.47
2018-05-18T05:44:18.155Z,7.90
2018-05-18T05:46:46.842Z,7.73
2018-05-18T05:49:17.199Z,7.80
2018-05-18T05:51:49.450Z,7.60
2018-05-18T05:54:21.191Z,7.87
2018-05-18T05:56:50.747Z,7.63
2018-05-18T05:59:19.335Z,8.33
2018-05-18T06:01:47.964Z,8.33
2018-05-18T06:04:17.089Z,13.83
2018-05-18T06:06:45.651Z,8.10
2018-05-18T06:09:14.249Z,9.70
2018-05-18T06:11:42.835Z,10.13
2018-05-18T06:14:11.220Z,9.30
2018-05-18T06:16:39.834Z,9.23
2018-05-18T06:19:08.530Z,10.00
2018-05-18T06:21:39.302Z,9.23
2018-05-18T06:24:07.857Z,8.43
2018-05-18T06:26:36.418Z,8.60
2018-05-18T06:29:05.394Z,7.80
2018-05-18T06:31:33.966Z,7.10
2018-05-18T06:34:03.171Z,6.87
2018-05-18T06:36:31.748Z,8.10
2018-05-18T06:39:00.324Z,8.00
2018-05-18T06:41:29.964Z,7.60
2018-05-18T06:43:58.518Z,7.80
2018-05-18T06:46:28.425Z,7.70
2018-05-18T06:48:58.904Z,7.63
2018-05-18T06:51:28.227Z,7.80
2018-05-18T06:53:56.815Z,8.17
2018-05-18T06:56:30.255Z,7.70
2018-05-18T06:58:59.899Z,8.27
2018-05-18T07:01:28.538Z,7.00
2018-05-18T07:03:57.784Z,6.90
2018-05-18T07:06:26.831Z,6.53
2018-05-18T07:08:55.846Z,6.33
2018-05-18T07:11:24.827Z,6.53
2018-05-18T07:13:53.467Z,6.93
2018-05-18T07:16:22.035Z,6.10
2018-05-18T07:18:50.906Z,6.53
2018-05-18T07:21:19.523Z,6.73
2018-05-18T07:23:48.395Z,7.00
2018-05-18T07:28:56.448Z,7.60
2018-05-18T07:31:26.069Z,7.70
2018-05-18T07:33:56.129Z,7.80
2018-05-18T07:36:27.470Z,8.90
2018-05-18T07:38:57.999Z,8.47
2018-05-18T07:41:26.777Z,19.80
2018-05-18T07:43:55.488Z,25.23
2018-05-18T07:46:24.184Z,15.37
2018-05-18T07:48:52.746Z,12.13
2018-05-18T07:51:21.317Z,10.83
2018-05-18T07:53:49.888Z,10.47
2018-05-18T07:56:18.491Z,11.40
2018-05-18T07:58:47.074Z,10.63
2018-05-18T08:01:15.644Z,12.60
2018-05-18T08:03:44.206Z,11.77
2018-05-18T08:06:12.755Z,11.30
2018-05-18T08:08:41.337Z,12.30
2018-05-18T08:11:09.557Z,12.10
2018-05-18T08:13:38.142Z,11.63
2018-05-18T08:16:06.722Z,11.17
2018-05-18T08:18:35.317Z,11.43
2018-05-18T08:21:03.910Z,10.70
2018-05-18T08:23:40.444Z,11.70
2018-05-18T08:26:09.326Z,10.63
2018-05-18T08:28:49.022Z,10.43
2018-05-18T08:31:17.642Z,10.83
2018-05-18T08:33:46.212Z,9.93
2018-05-18T08:36:14.795Z,9.63
2018-05-18T08:38:43.376Z,10.13
2018-05-18T08:41:11.991Z,9.60
2018-05-18T08:43:40.557Z,9.73
2018-05-18T08:46:09.302Z,9.10
2018-05-18T08:48:37.910Z,12.67
2018-05-18T08:51:06.486Z,13.37
2018-05-18T08:53:35.376Z,9.70
2018-05-18T08:56:04.070Z,30.93
2018-05-18T08:58:32.783Z,11.63
2018-05-18T09:01:01.339Z,9.90
2018-05-18T09:03:29.933Z,8.20
2018-05-18T09:05:58.677Z,6.80
2018-05-18T09:08:27.239Z,5.83
2018-05-18T09:10:55.792Z,3.47
2018-05-18T09:13:24.382Z,3.67
2018-05-18T09:15:53.163Z,3.33
2018-05-18T09:18:21.919Z,3.17
2018-05-18T09:20:50.484Z,2.53
2018-05-18T09:23:19.039Z,2.17
2018-05-18T09:25:47.641Z,3.40
2018-05-18T09:28:16.215Z,3.50
2018-05-18T09:30:44.788Z,3.10
2018-05-18T09:33:13.347Z,3.60
2018-05-18T09:35:41.916Z,11.17
2018-05-18T09:38:10.511Z,3.10
2018-05-18T09:40:39.076Z,3.00
2018-05-18T09:43:07.630Z,2.83
2018-05-18T09:45:36.253Z,2.80
2018-05-18T09:48:04.812Z,3.33
2018-05-18T09:50:33.379Z,3.10
2018-05-18T09:53:02.888Z,4.13
2018-05-18T09:55:31.658Z,2.57
2018-05-18T09:58:00.213Z,2.77
2018-05-18T10:00:28.819Z,2.93
2018-05-18T10:02:57.414Z,2.80
2018-05-18T10:05:25.959Z,4.30
2018-05-18T10:07:54.616Z,3.37
2018-05-18T10:10:23.159Z,3.20
2018-05-18T10:12:51.731Z,4.33
2018-05-18T10:15:20.343Z,2.87
2018-05-18T10:17:48.946Z,3.70
2018-05-18T10:20:17.511Z,3.17
2018-05-18T10:22:46.083Z,3.10
2018-05-18T10:25:14.295Z,2.90
2018-05-18T10:27:42.846Z,3.30
2018-05-18T10:30:11.434Z,3.10
2018-05-18T10:32:40.035Z,3.13
2018-05-18T10:35:08.642Z,3.00
2018-05-18T10:37:37.207Z,2.80
2018-05-18T10:40:05.786Z,4.70
2018-05-18T10:42:34.352Z,3.53
2018-05-18T10:45:02.926Z,3.03
2018-05-18T10:47:31.503Z,3.40
2018-05-18T10:50:00.070Z,3.37
2018-05-18T10:52:28.640Z,3.13
2018-05-18T10:54:57.205Z,3.23
2018-05-18T10:57:25.764Z,3.40
2018-05-18T10:59:53.954Z,2.77
2018-05-18T11:02:22.507Z,2.90
2018-05-18T11:04:51.073Z,3.00
2018-05-18T11:07:19.866Z,2.93
2018-05-18T11:09:48.472Z,2.57
2018-05-18T11:12:17.123Z,2.83
2018-05-18T11:14:45.670Z,3.20
2018-05-18T11:17:14.219Z,3.80
2018-05-18T11:19:42.778Z,2.80
2018-05-18T11:22:11.343Z,3.40
2018-05-18T11:24:39.900Z,3.00
2018-05-18T11:27:08.514Z,2.97
2018-05-18T11:29:37.076Z,3.30
2018-05-18T11:32:05.644Z,4.20
2018-05-18T11:34:34.199Z,3.37
2018-05-18T11:37:02.753Z,3.80
2018-05-18T11:39:31.328Z,3.40
2018-05-18T11:41:59.909Z,3.17
2018-05-18T11:44:28.524Z,2.80
2018-05-18T11:46:57.091Z,2.63
2018-05-18T11:49:25.698Z,2.93
2018-05-18T11:51:53.947Z,2.90
2018-05-18T11:54:22.526Z,3.10
2018-05-18T11:56:51.106Z,2.90
2018-05-18T11:59:19.691Z,3.07
2018-05-18T12:01:49.182Z,3.37
2018-05-18T12:04:17.856Z,3.00
2018-05-18T12:06:46.420Z,3.30
2018-05-18T12:09:15.007Z,3.00
2018-05-18T12:11:43.594Z,2.90
2018-05-18T12:14:12.236Z,3.17
2018-05-18T12:16:40.916Z,4.17
2018-05-18T12:19:09.589Z,4.17
2018-05-18T12:21:38.202Z,3.07
2018-05-18T12:24:06.759Z,2.90
2018-05-18T12:26:35.345Z,3.00
2018-05-18T12:29:03.621Z,3.00
2018-05-18T12:31:32.227Z,3.93
2018-05-18T12:34:01.015Z,3.20
2018-05-18T12:36:29.579Z,2.97
2018-05-18T12:38:58.199Z,3.17
2018-05-18T12:41:26.794Z,3.40
2018-05-18T12:43:55.364Z,2.90
2018-05-18T12:46:29.119Z,3.10
2018-05-18T12:48:57.458Z,2.90
2018-05-18T12:51:26.016Z,3.20
2018-05-18T12:53:54.658Z,3.27
2018-05-18T12:56:23.429Z,2.93
2018-05-18T12:58:52.025Z,3.43
2018-05-18T13:01:20.586Z,3.23
2018-05-18T13:03:49.160Z,3.40
2018-05-18T13:06:17.776Z,3.20
2018-05-18T13:08:46.333Z,3.20
2018-05-18T13:11:14.887Z,3.80
2018-05-18T13:13:43.452Z,3.47
2018-05-18T13:16:12.069Z,4.00
2018-05-18T13:18:40.636Z,3.83
2018-05-18T13:21:09.233Z,3.30
2018-05-18T13:23:37.789Z,3.27
2018-05-18T13:26:06.354Z,3.10
2018-05-18T13:28:34.967Z,3.00
2018-05-18T13:31:03.534Z,3.20
2018-05-18T13:33:32.135Z,3.27
2018-05-18T13:36:00.691Z,2.80
2018-05-18T13:38:29.284Z,3.57
2018-05-18T13:40:57.998Z,2.90
2018-05-18T13:43:26.552Z,3.70
2018-05-18T13:45:55.124Z,3.27
2018-05-18T13:48:23.910Z,3.43
2018-05-18T13:50:52.466Z,3.00
2018-05-18T13:53:21.016Z,3.40
2018-05-18T13:55:49.579Z,3.30
2018-05-18T13:58:18.127Z,3.30
2018-05-18T14:00:46.729Z,3.33
2018-05-18T14:03:15.282Z,3.00
2018-05-18T14:05:43.832Z,3.40
2018-05-18T14:08:12.403Z,3.60
2018-05-18T14:10:40.968Z,3.17
2018-05-18T14:13:09.518Z,3.50
2018-05-18T14:15:38.116Z,3.43
2018-05-18T14:18:06.683Z,3.20
2018-05-18T14:20:35.239Z,3.30
2018-05-18T14:23:03.790Z,3.80
2018-05-18T14:25:32.352Z,4.40
2018-05-18T14:28:00.911Z,3.70
2018-05-18T14:30:29.478Z,5.57
2018-05-18T14:32:58.042Z,5.30
2018-05-18T14:35:26.633Z,3.50
2018-05-18T14:37:55.749Z,3.47
2018-05-18T14:40:24.450Z,3.67
2018-05-18T14:42:53.066Z,3.53
2018-05-18T14:45:21.637Z,3.50
2018-05-18T14:47:50.191Z,3.80
2018-05-18T14:50:18.452Z,3.67
2018-05-18T14:52:47.162Z,5.20
2018-05-18T14:55:15.726Z,5.30
2018-05-18T14:57:44.285Z,4.30
2018-05-18T15:00:12.935Z,3.27
2018-05-18T15:02:41.490Z,3.97
2018-05-18T15:05:10.079Z,3.80
2018-05-18T15:07:38.623Z,3.73
2018-05-18T15:10:07.188Z,3.90
2018-05-18T15:12:35.738Z,3.93
2018-05-18T15:15:04.299Z,4.07
2018-05-18T15:17:32.886Z,4.10
2018-05-18T15:20:01.476Z,3.33
2018-05-18T15:22:30.042Z,3.80
2018-05-18T15:24:58.611Z,3.60
2018-05-18T15:27:27.269Z,4.03
2018-05-18T15:29:55.963Z,3.60
2018-05-18T15:32:24.564Z,3.73
2018-05-18T15:34:53.144Z,4.50
2018-05-18T15:37:21.773Z,4.20
2018-05-18T15:39:50.593Z,4.73
2018-05-18T15:42:19.170Z,6.50
2018-05-18T15:44:47.764Z,4.40
2018-05-18T15:47:16.724Z,4.40
2018-05-18T15:49:45.528Z,4.07
2018-05-18T15:52:14.080Z,3.93
2018-05-18T15:54:42.652Z,5.27
2018-05-18T15:57:11.710Z,6.53
2018-05-18T15:59:40.306Z,7.17
2018-05-18T16:02:08.877Z,3.93
2018-05-18T16:04:37.516Z,4.00
2018-05-18T16:07:06.101Z,2.70
2018-05-18T16:09:34.672Z,2.33
2018-05-18T16:12:03.262Z,2.97
2018-05-18T16:14:31.832Z,2.67
2018-05-18T16:17:00.425Z,2.50
2018-05-18T16:19:28.974Z,2.27
2018-05-18T16:21:57.526Z,2.53
2018-05-18T16:24:26.075Z,2.80
2018-05-18T16:26:54.638Z,3.00
2018-05-18T16:29:23.290Z,2.60
2018-05-18T16:31:51.899Z,2.47
2018-05-18T16:34:20.472Z,2.70
2018-05-18T16:36:49.036Z,2.30
2018-05-18T16:39:17.643Z,3.00
2018-05-18T16:41:46.253Z,3.20
2018-05-18T16:44:14.847Z,3.03
2018-05-18T16:46:43.459Z,2.90
2018-05-18T16:49:12.085Z,3.23
2018-05-18T16:51:40.648Z,3.50
2018-05-18T16:54:09.216Z,3.10
2018-05-18T16:56:37.828Z,2.80
2018-05-18T16:59:06.385Z,2.83
2018-05-18T17:01:35.072Z,2.90
2018-05-18T17:04:03.664Z,2.83
2018-05-18T17:06:32.324Z,2.30
2018-05-18T17:09:01.009Z,2.33
2018-05-18T17:11:29.645Z,2.47
2018-05-18T17:13:58.195Z,2.63
2018-05-18T17:16:26.767Z,3.57
2018-05-18T17:18:55.363Z,2.87
2018-05-18T17:21:23.927Z,3.10
2018-05-18T17:23:52.530Z,3.03
2018-05-18T17:26:21.103Z,2.40
2018-05-18T17:28:49.743Z,3.03
2018-05-18T17:31:18.348Z,2.50
2018-05-18T17:33:46.909Z,2.60
2018-05-18T17:36:15.470Z,2.93
2018-05-18T17:38:44.027Z,3.10
2018-05-18T17:41:12.608Z,2.63
2018-05-18T17:43:40.982Z,2.83
2018-05-18T17:46:09.346Z,2.87
2018-05-18T17:48:37.903Z,2.70
2018-05-18T17:51:06.510Z,2.70
2018-05-18T17:53:38.943Z,2.83
2018-05-18T17:56:07.568Z,2.80
2018-05-18T17:58:36.127Z,3.50
2018-05-18T18:01:04.716Z,3.47
2018-05-18T18:03:33.286Z,3.63
2018-05-18T18:06:02.031Z,3.63
2018-05-18T18:08:30.592Z,3.73
2018-05-18T18:10:59.225Z,3.23
2018-05-18T18:13:27.788Z,3.70
2018-05-18T18:15:56.357Z,3.20
2018-05-18T18:18:26.704Z,3.27
2018-05-18T18:20:55.288Z,3.20
2018-05-18T18:23:23.880Z,3.40
2018-05-18T18:25:52.470Z,3.30
2018-05-18T18:28:21.027Z,4.00
2018-05-18T18:30:49.616Z,3.43
2018-05-18T18:33:18.176Z,3.10
2018-05-18T18:35:46.845Z,3.13
2018-05-18T18:38:15.400Z,2.93
2018-05-18T18:40:46.702Z,3.37
2018-05-18T18:43:15.262Z,3.27
2018-05-18T18:45:43.861Z,3.20
2018-05-18T18:48:12.505Z,2.87
2018-05-18T18:50:41.123Z,3.03
2018-05-18T18:53:09.690Z,3.27
2018-05-18T18:55:38.257Z,2.80
2018-05-18T18:58:06.820Z,2.90
2018-05-18T19:00:35.432Z,3.27
2018-05-18T19:03:04.026Z,2.80
2018-05-18T19:05:32.592Z,3.10
2018-05-18T19:08:01.230Z,3.10
2018-05-18T19:10:30.223Z,3.17
2018-05-18T19:13:05.163Z,3.10
2018-05-18T19:15:33.895Z,2.53
2018-05-18T19:18:05.647Z,2.73
2018-05-18T19:20:36.772Z,2.80
2018-05-18T19:23:06.456Z,2.90
2018-05-18T19:25:35.015Z,2.90
2018-05-18T19:28:03.581Z,2.97
2018-05-18T19:30:32.151Z,2.70
2018-05-18T19:33:00.770Z,2.80
2018-05-18T19:35:32.074Z,2.30
2018-05-18T19:38:00.709Z,2.00
2018-05-18T19:40:29.292Z,2.10
